createdAt,value
2023-04-15T00:01:07.903Z,5.97
2023-04-15T00:03:35.685Z,6.18
2023-04-15T00:06:03.804Z,5.93
2023-04-15T00:08:31.232Z,5.90
2023-04-15T00:11:03.126Z,6.22
2023-04-15T00:13:30.874Z,6.20
2023-04-15T00:15:58.222Z,6.07
2023-04-15T00:18:25.816Z,6.80
2023-04-15T00:20:53.574Z,7.00
2023-04-15T00:23:20.803Z,6.30
2023-04-15T00:25:47.937Z,6.05
2023-04-15T00:28:15.159Z,5.97
2023-04-15T00:30:42.725Z,5.87
2023-04-15T00:33:10.069Z,6.40
2023-04-15T00:35:37.589Z,6.03
2023-04-15T00:38:05.883Z,6.03
2023-04-15T00:40:33.468Z,5.97
2023-04-15T00:43:00.530Z,6.00
2023-04-15T00:45:28.285Z,5.93
2023-04-15T00:47:55.966Z,5.93
2023-04-15T00:50:23.221Z,6.28
2023-04-15T00:52:50.977Z,5.47
2023-04-15T00:55:19.301Z,5.72
2023-04-15T00:57:46.923Z,5.67
2023-04-15T01:00:14.509Z,5.35
2023-04-15T01:02:41.609Z,5.50
2023-04-15T01:05:09.510Z,5.53
2023-04-15T01:07:36.993Z,5.37
2023-04-15T01:10:04.991Z,5.63
2023-04-15T01:12:33.968Z,4.87
2023-04-15T01:15:02.368Z,5.82
2023-04-15T01:17:30.188Z,5.45
2023-04-15T01:19:58.328Z,5.72
2023-04-15T01:22:27.613Z,5.23
2023-04-15T01:25:02.728Z,5.47
2023-04-15T01:27:30.389Z,5.45
2023-04-15T01:29:57.634Z,5.22
2023-04-15T01:32:25.118Z,5.80
2023-04-15T01:34:52.244Z,5.30
2023-04-15T01:37:19.384Z,5.22
2023-04-15T01:39:46.436Z,4.85
2023-04-15T01:42:13.746Z,5.20
2023-04-15T01:44:40.814Z,5.40
2023-04-15T01:47:08.603Z,5.60
2023-04-15T01:49:36.173Z,5.00
2023-04-15T01:52:03.088Z,5.20
2023-04-15T01:54:30.145Z,5.12
2023-04-15T01:56:57.068Z,4.90
2023-04-15T01:59:24.224Z,4.80
2023-04-15T02:01:52.522Z,4.85
2023-04-15T02:04:19.463Z,5.07
2023-04-15T02:06:46.507Z,4.75
2023-04-15T02:09:13.567Z,5.15
2023-04-15T02:11:41.159Z,5.00
2023-04-15T02:14:08.453Z,5.07
2023-04-15T02:16:35.653Z,5.10
2023-04-15T02:19:03.973Z,4.57
2023-04-15T02:21:31.081Z,5.30
2023-04-15T02:23:58.608Z,4.83
2023-04-15T02:26:25.763Z,5.05
2023-04-15T02:28:53.080Z,5.37
2023-04-15T02:31:21.837Z,4.90
2023-04-15T02:33:49.458Z,4.87
2023-04-15T02:36:16.632Z,4.57
2023-04-15T02:38:43.503Z,5.03
2023-04-15T02:41:10.715Z,4.65
2023-04-15T02:43:40.025Z,4.57
2023-04-15T02:46:07.376Z,4.47
2023-04-15T02:48:34.583Z,5.03
2023-04-15T02:51:15.561Z,4.80
2023-04-15T02:53:43.003Z,4.82
2023-04-15T02:56:10.013Z,4.53
2023-04-15T02:58:38.009Z,5.30
2023-04-15T03:01:05.495Z,5.10
2023-04-15T03:03:32.816Z,4.80
2023-04-15T03:06:11.805Z,4.57
2023-04-15T03:08:38.780Z,5.35
2023-04-15T03:11:05.799Z,4.70
2023-04-15T03:13:32.664Z,4.83
2023-04-15T03:15:59.687Z,4.60
2023-04-15T03:18:26.739Z,4.78
2023-04-15T03:20:53.592Z,4.85
2023-04-15T03:23:20.835Z,5.47
2023-04-15T03:25:47.724Z,5.07
2023-04-15T03:28:14.611Z,5.45
2023-04-15T03:30:41.981Z,5.43
2023-04-15T03:33:09.213Z,5.47
2023-04-15T03:35:36.340Z,5.40
2023-04-15T03:38:03.351Z,4.83
2023-04-15T03:40:30.455Z,5.35
2023-04-15T03:42:57.651Z,5.00
2023-04-15T03:45:24.613Z,5.55
2023-04-15T03:47:51.773Z,5.55
2023-04-15T03:50:19.125Z,5.87
2023-04-15T03:52:46.585Z,5.20
2023-04-15T03:55:14.557Z,5.40
2023-04-15T03:57:41.613Z,5.35
2023-04-15T04:00:10.704Z,5.72
2023-04-15T04:02:37.970Z,5.63
2023-04-15T04:05:05.243Z,5.32
2023-04-15T04:07:32.417Z,5.15
2023-04-15T04:09:59.435Z,5.68
2023-04-15T04:12:26.504Z,5.45
2023-04-15T04:14:53.474Z,5.30
2023-04-15T04:17:20.692Z,5.80
2023-04-15T04:19:48.429Z,5.68
2023-04-15T04:22:15.858Z,5.68
2023-04-15T04:24:42.689Z,5.95
2023-04-15T04:27:09.627Z,5.63
2023-04-15T04:29:36.943Z,5.53
2023-04-15T04:32:04.334Z,5.53
2023-04-15T04:34:32.612Z,6.00
2023-04-15T04:36:59.703Z,5.95
2023-04-15T04:39:26.790Z,7.10
2023-04-15T04:41:54.096Z,6.95
2023-04-15T04:44:20.957Z,7.20
2023-04-15T04:46:47.961Z,6.82
2023-04-15T04:49:15.125Z,6.47
2023-04-15T04:51:42.321Z,5.33
2023-04-15T04:54:09.916Z,6.37
2023-04-15T04:56:39.294Z,5.87
2023-04-15T04:59:07.978Z,5.70
2023-04-15T05:01:35.161Z,5.55
2023-04-15T05:04:02.297Z,5.43
2023-04-15T05:06:30.648Z,5.60
2023-04-15T05:08:58.555Z,5.50
2023-04-15T05:11:25.896Z,5.37
2023-04-15T05:13:52.866Z,5.72
2023-04-15T05:16:20.669Z,5.90
2023-04-15T05:18:47.942Z,6.15
2023-04-15T05:21:15.206Z,6.65
2023-04-15T05:23:42.470Z,5.65
2023-04-15T05:26:09.551Z,5.80
2023-04-15T05:28:36.757Z,6.03
2023-04-15T05:31:03.993Z,5.90
2023-04-15T05:33:31.535Z,6.05
2023-04-15T05:35:58.589Z,5.85
2023-04-15T05:38:26.208Z,5.87
2023-04-15T05:40:53.740Z,5.80
2023-04-15T05:43:20.923Z,6.25
2023-04-15T05:45:47.864Z,6.03
2023-04-15T05:48:15.058Z,5.68
2023-04-15T05:50:42.654Z,5.55
2023-04-15T05:53:09.794Z,6.50
2023-04-15T05:55:37.013Z,6.28
2023-04-15T05:58:04.285Z,6.10
2023-04-15T06:00:31.375Z,6.00
2023-04-15T06:02:59.205Z,6.60
2023-04-15T06:05:26.296Z,6.43
2023-04-15T06:07:53.425Z,6.15
2023-04-15T06:10:20.600Z,5.65
2023-04-15T06:12:47.813Z,5.15
2023-04-15T06:15:15.378Z,4.97
2023-04-15T06:17:43.023Z,4.40
2023-04-15T06:20:11.480Z,4.82
2023-04-15T06:22:39.492Z,4.87
2023-04-15T06:25:08.821Z,6.05
2023-04-15T06:27:35.985Z,5.20
2023-04-15T06:30:04.363Z,4.80
2023-04-15T06:32:32.596Z,4.90
2023-04-15T06:34:59.761Z,4.62
2023-04-15T06:37:26.862Z,4.28
2023-04-15T06:39:54.041Z,3.75
2023-04-15T06:42:21.309Z,4.67
2023-04-15T06:44:48.338Z,4.57
2023-04-15T06:47:15.563Z,4.93
2023-04-15T06:49:43.306Z,4.80
2023-04-15T06:52:11.454Z,4.87
2023-04-15T06:54:38.658Z,5.03
2023-04-15T06:57:07.283Z,4.65
2023-04-15T06:59:34.207Z,4.45
2023-04-15T07:02:01.633Z,4.78
2023-04-15T07:04:28.602Z,4.28
2023-04-15T07:06:58.275Z,4.10
2023-04-15T07:09:25.814Z,3.90
2023-04-15T07:11:53.389Z,3.17
2023-04-15T07:14:21.140Z,8.57
2023-04-15T07:16:48.587Z,4.72
2023-04-15T07:19:15.924Z,3.40
2023-04-15T07:21:43.073Z,3.42
2023-04-15T07:24:10.641Z,3.67
2023-04-15T07:26:37.782Z,3.65
2023-04-15T07:29:05.158Z,3.70
2023-04-15T07:31:32.532Z,3.43
2023-04-15T07:34:00.025Z,3.50
2023-04-15T07:36:27.069Z,3.12
2023-04-15T07:38:55.412Z,3.15
2023-04-15T07:41:22.534Z,3.17
2023-04-15T07:43:50.188Z,2.47
2023-04-15T07:46:17.297Z,3.30
2023-04-15T07:48:44.544Z,3.87
2023-04-15T07:51:13.053Z,3.20
2023-04-15T07:53:40.079Z,3.62
2023-04-15T07:56:07.560Z,2.97
2023-04-15T07:58:35.037Z,2.70
2023-04-15T08:01:02.088Z,2.28
2023-04-15T08:03:29.503Z,2.50
2023-04-15T08:05:57.880Z,2.28
2023-04-15T08:08:26.485Z,2.80
2023-04-15T08:10:53.753Z,2.60
2023-04-15T08:13:21.118Z,2.30
2023-04-15T08:16:13.880Z,2.45
2023-04-15T08:18:42.393Z,2.55
2023-04-15T08:21:09.546Z,2.47
2023-04-15T08:23:37.168Z,2.50
2023-04-15T08:26:04.404Z,2.42
2023-04-15T08:28:31.588Z,2.10
2023-04-15T08:30:59.099Z,2.60
2023-04-15T08:33:26.244Z,2.40
2023-04-15T08:35:53.396Z,2.03
2023-04-15T08:38:20.412Z,1.92
2023-04-15T08:40:47.835Z,2.00
2023-04-15T08:43:28.780Z,2.00
2023-04-15T08:45:56.102Z,1.93
2023-04-15T08:48:24.697Z,1.87
2023-04-15T08:50:52.243Z,2.12
2023-04-15T08:53:19.307Z,2.10
2023-04-15T08:55:51.274Z,2.15
2023-04-15T08:58:19.958Z,2.00
2023-04-15T09:00:47.466Z,1.80
2023-04-15T09:03:15.239Z,2.25
2023-04-15T09:05:42.547Z,1.80
2023-04-15T09:08:10.004Z,1.58
2023-04-15T09:10:37.937Z,1.20
2023-04-15T09:13:04.851Z,1.20
2023-04-15T09:15:33.271Z,1.27
2023-04-15T09:18:00.918Z,0.70
2023-04-15T09:20:28.071Z,0.70
2023-04-15T09:22:55.682Z,0.53
2023-04-15T09:25:22.715Z,0.60
2023-04-15T09:27:50.705Z,0.40
2023-04-15T09:30:18.092Z,0.40
2023-04-15T09:33:11.087Z,0.40
2023-04-15T09:35:38.606Z,0.60
2023-04-15T09:38:08.911Z,0.60
2023-04-15T09:40:41.203Z,0.60
2023-04-15T09:43:13.003Z,0.60
2023-04-15T09:45:48.634Z,0.60
2023-04-15T09:48:27.345Z,0.57
2023-04-15T09:50:58.484Z,0.60
2023-04-15T09:53:26.561Z,0.50
2023-04-15T09:55:56.327Z,0.40
2023-04-15T09:58:32.600Z,0.47
2023-04-15T10:01:01.907Z,0.70
2023-04-15T10:03:32.186Z,0.47
2023-04-15T10:06:00.871Z,0.45
2023-04-15T10:08:30.744Z,0.40
2023-04-15T10:10:58.444Z,0.30
2023-04-15T10:13:29.588Z,0.30
2023-04-15T10:16:10.966Z,0.35
2023-04-15T10:18:44.060Z,0.40
2023-04-15T10:21:11.916Z,0.52
2023-04-15T10:23:39.962Z,0.50
2023-04-15T10:26:08.447Z,0.40
2023-04-15T10:28:35.571Z,0.40
2023-04-15T10:31:04.991Z,0.70
2023-04-15T10:33:32.895Z,0.60
2023-04-15T10:36:01.334Z,0.60
2023-04-15T10:38:39.445Z,0.40
2023-04-15T10:41:22.814Z,0.40
2023-04-15T10:43:51.742Z,0.52
2023-04-15T10:46:21.772Z,0.25
2023-04-15T10:48:50.347Z,0.40
2023-04-15T10:51:26.934Z,0.30
2023-04-15T10:53:59.561Z,0.40
2023-04-15T10:56:28.866Z,0.85
2023-04-15T10:58:59.599Z,1.25
2023-04-15T11:01:56.595Z,1.45
2023-04-15T11:04:53.422Z,0.80
2023-04-15T11:07:48.577Z,0.85
2023-04-15T11:10:18.820Z,0.80
2023-04-15T11:12:46.661Z,1.17
2023-04-15T11:15:33.809Z,0.77
2023-04-15T11:18:30.728Z,1.03
2023-04-15T11:21:06.779Z,1.00
2023-04-15T11:23:46.970Z,1.00
2023-04-15T11:26:13.964Z,1.00
2023-04-15T11:28:43.397Z,1.00
2023-04-15T11:31:16.687Z,0.50
2023-04-15T11:33:59.451Z,0.50
2023-04-15T11:36:28.086Z,0.88
2023-04-15T11:38:56.018Z,0.30
2023-04-15T11:41:23.870Z,0.30
2023-04-15T11:43:52.725Z,0.30
2023-04-15T11:46:22.763Z,0.43
2023-04-15T11:48:50.338Z,0.37
2023-04-15T11:51:18.694Z,0.50
2023-04-15T11:53:47.795Z,0.35
2023-04-15T11:56:23.329Z,2.13
2023-04-15T11:58:54.754Z,0.90
2023-04-15T12:01:21.933Z,4.28
2023-04-15T12:03:50.403Z,5.05
2023-04-15T12:06:23.590Z,6.70
2023-04-15T12:09:16.751Z,3.37
2023-04-15T12:11:49.794Z,10.90
2023-04-15T12:14:30.752Z,1.55
2023-04-15T12:17:03.302Z,1.83
2023-04-15T12:19:42.390Z,0.40
2023-04-15T12:22:11.763Z,1.90
2023-04-15T12:24:39.566Z,1.35
2023-04-15T12:27:08.709Z,0.50
2023-04-15T12:29:38.415Z,0.40
2023-04-15T12:32:08.612Z,0.40
2023-04-15T12:34:38.176Z,0.27
2023-04-15T12:37:07.818Z,0.30
2023-04-15T12:39:40.716Z,0.30
2023-04-15T12:42:08.436Z,0.30
2023-04-15T12:44:36.799Z,0.30
2023-04-15T12:47:04.452Z,0.20
2023-04-15T12:49:32.871Z,0.60
2023-04-15T12:52:02.309Z,0.30
2023-04-15T12:54:30.925Z,0.60
2023-04-15T12:56:58.859Z,0.37
2023-04-15T12:59:26.058Z,0.23
2023-04-15T13:01:54.148Z,0.47
2023-04-15T13:04:21.907Z,0.20
2023-04-15T13:06:49.552Z,0.70
2023-04-15T13:09:16.642Z,0.30
2023-04-15T13:11:43.762Z,0.20
2023-04-15T13:14:13.878Z,0.30
2023-04-15T13:16:41.563Z,0.20
2023-04-15T13:19:08.787Z,0.20
2023-04-15T13:21:36.754Z,0.40
2023-04-15T13:24:05.146Z,0.60
2023-04-15T13:26:33.117Z,1.00
2023-04-15T13:29:01.498Z,0.40
2023-04-15T13:31:29.427Z,0.50
2023-04-15T13:33:57.680Z,0.60
2023-04-15T13:36:24.891Z,0.20
2023-04-15T13:38:52.566Z,0.40
2023-04-15T13:41:21.359Z,0.62
2023-04-15T13:43:48.660Z,0.40
2023-04-15T13:46:16.279Z,0.65
2023-04-15T13:48:43.892Z,0.70
2023-04-15T13:51:11.158Z,0.40
2023-04-15T13:53:39.763Z,1.42
2023-04-15T13:56:10.610Z,0.35
2023-04-15T13:58:41.785Z,0.50
2023-04-15T14:01:09.313Z,0.50
2023-04-15T14:03:36.921Z,0.60
2023-04-15T14:06:05.752Z,0.80
2023-04-15T14:08:33.171Z,0.90
2023-04-15T14:11:00.801Z,1.40
2023-04-15T14:13:27.946Z,1.50
2023-04-15T14:15:55.354Z,0.90
2023-04-15T14:18:22.945Z,0.98
2023-04-15T14:20:50.116Z,1.27
2023-04-15T14:23:17.779Z,1.65
2023-04-15T14:25:46.828Z,1.40
2023-04-15T14:28:15.960Z,1.00
2023-04-15T14:30:43.742Z,0.77
2023-04-15T14:33:10.970Z,0.62
2023-04-15T14:35:39.163Z,1.00
2023-04-15T14:38:10.940Z,1.27
2023-04-15T14:40:38.837Z,1.90
2023-04-15T14:43:06.094Z,1.40
2023-04-15T14:45:33.193Z,1.00
2023-04-15T14:48:00.628Z,1.60
2023-04-15T14:50:28.269Z,1.00
2023-04-15T14:52:55.746Z,1.42
2023-04-15T14:55:23.776Z,1.40
2023-04-15T14:57:51.602Z,1.15
2023-04-15T15:00:19.036Z,1.52
2023-04-15T15:02:47.646Z,1.50
2023-04-15T15:05:14.840Z,1.60
2023-04-15T15:07:42.114Z,2.30
2023-04-15T15:10:09.163Z,1.75
2023-04-15T15:12:36.340Z,1.55
2023-04-15T15:15:15.475Z,1.43
2023-04-15T15:17:46.904Z,1.45
2023-04-15T15:20:14.135Z,1.70
2023-04-15T15:22:41.074Z,1.48
2023-04-15T15:25:08.428Z,1.60
2023-04-15T15:27:38.110Z,4.97
2023-04-15T15:30:07.166Z,2.58
2023-04-15T15:32:34.750Z,2.00
2023-04-15T15:35:02.366Z,1.90
2023-04-15T15:37:30.930Z,1.98
2023-04-15T15:39:57.995Z,1.77
2023-04-15T15:42:25.491Z,2.20
2023-04-15T15:44:53.245Z,1.85
2023-04-15T15:47:22.167Z,1.83
2023-04-15T15:49:49.250Z,1.92
2023-04-15T15:52:16.367Z,1.40
2023-04-15T15:54:43.583Z,2.28
2023-04-15T15:57:11.356Z,1.70
2023-04-15T15:59:41.234Z,1.50
2023-04-15T16:02:13.469Z,1.50
2023-04-15T16:04:41.730Z,1.50
2023-04-15T16:07:10.196Z,1.42
2023-04-15T16:09:37.536Z,1.25
2023-04-15T16:12:04.765Z,1.00
2023-04-15T16:14:31.978Z,1.73
2023-04-15T16:16:59.497Z,1.40
2023-04-15T16:19:26.472Z,1.92
2023-04-15T16:21:54.138Z,1.73
2023-04-15T16:24:21.431Z,0.60
2023-04-15T16:26:48.428Z,1.10
2023-04-15T16:29:15.777Z,1.47
2023-04-15T16:31:43.539Z,1.62
2023-04-15T16:34:10.626Z,0.80
2023-04-15T16:36:40.789Z,0.85
2023-04-15T16:39:07.913Z,1.30
2023-04-15T16:41:35.718Z,1.93
2023-04-15T16:44:03.570Z,2.28
2023-04-15T16:46:31.057Z,2.30
2023-04-15T16:48:58.375Z,2.80
2023-04-15T16:51:26.393Z,4.32
2023-04-15T16:53:54.398Z,2.70
2023-04-15T16:56:22.132Z,4.03
2023-04-15T16:58:49.672Z,2.03
2023-04-15T17:01:17.177Z,2.85
2023-04-15T17:03:45.105Z,2.35
2023-04-15T17:06:17.871Z,1.67
2023-04-15T17:08:45.088Z,1.75
2023-04-15T17:11:12.522Z,1.83
2023-04-15T17:13:39.805Z,2.08
2023-04-15T17:16:19.024Z,2.58
2023-04-15T17:18:47.556Z,2.17
2023-04-15T17:21:16.659Z,2.40
2023-04-15T17:23:43.463Z,2.20
2023-04-15T17:26:10.781Z,2.20
2023-04-15T17:28:38.512Z,2.53
2023-04-15T17:31:06.203Z,3.00
2023-04-15T17:34:00.882Z,2.83
2023-04-15T17:36:20.294Z,2.85
2023-04-15T17:38:47.400Z,4.28
2023-04-15T17:41:14.911Z,3.58
2023-04-15T17:43:43.863Z,4.60
2023-04-15T17:46:19.993Z,6.60
2023-04-15T17:48:48.256Z,7.82
2023-04-15T17:51:15.751Z,7.80
2023-04-15T17:53:45.329Z,7.87
2023-04-15T17:56:15.972Z,9.10
2023-04-15T17:58:44.196Z,10.30
2023-04-15T18:01:12.375Z,12.93
2023-04-15T18:03:41.046Z,17.25
2023-04-15T18:06:08.158Z,13.68
2023-04-15T18:08:35.572Z,17.80
2023-04-15T18:11:02.569Z,16.37
2023-04-15T18:13:30.376Z,10.85
2023-04-15T18:15:58.088Z,10.07
2023-04-15T18:18:26.113Z,10.85
2023-04-15T18:20:53.575Z,10.23
2023-04-15T18:23:21.830Z,10.13
2023-04-15T18:25:49.222Z,9.55
2023-04-15T18:28:16.848Z,7.93
2023-04-15T18:30:44.277Z,7.93
2023-04-15T18:33:12.301Z,8.13
2023-04-15T18:35:43.143Z,7.25
2023-04-15T18:38:10.580Z,8.02
2023-04-15T18:40:38.584Z,7.62
2023-04-15T18:43:09.042Z,9.40
2023-04-15T18:45:37.173Z,11.20
2023-04-15T18:48:05.617Z,11.95
2023-04-15T18:50:32.763Z,10.73
2023-04-15T18:53:03.840Z,12.68
2023-04-15T18:55:31.921Z,12.10
2023-04-15T18:58:08.919Z,11.97
2023-04-15T19:00:40.977Z,11.90
2023-04-15T19:03:08.423Z,12.20
2023-04-15T19:05:37.024Z,11.98
2023-04-15T19:08:05.944Z,12.63
2023-04-15T19:10:35.109Z,12.47
2023-04-15T19:13:13.223Z,12.40
2023-04-15T19:15:41.352Z,11.52
2023-04-15T19:18:11.212Z,10.52
2023-04-15T19:20:40.268Z,11.73
2023-04-15T19:23:09.067Z,11.77
2023-04-15T19:25:38.627Z,11.52
2023-04-15T19:28:05.991Z,11.93
2023-04-15T19:30:33.259Z,13.57
2023-04-15T19:33:01.588Z,14.00
2023-04-15T19:35:32.084Z,16.27
2023-04-15T19:38:00.035Z,14.73
2023-04-15T19:40:27.742Z,11.85
2023-04-15T19:42:55.964Z,12.57
2023-04-15T19:45:23.729Z,12.27
2023-04-15T19:47:51.725Z,15.37
2023-04-15T19:50:25.021Z,14.85
2023-04-15T19:52:53.385Z,14.98
2023-04-15T19:55:20.703Z,14.20
2023-04-15T19:57:49.317Z,15.73
2023-04-15T20:00:17.501Z,19.33
2023-04-15T20:02:45.959Z,18.62
2023-04-15T20:05:14.496Z,19.35
2023-04-15T20:07:48.248Z,18.37
2023-04-15T20:10:15.856Z,19.67
2023-04-15T20:12:50.904Z,18.83
2023-04-15T20:15:24.191Z,18.08
2023-04-15T20:17:52.378Z,18.75
2023-04-15T20:20:20.260Z,17.80
2023-04-15T20:22:48.573Z,16.62
2023-04-15T20:25:16.488Z,18.90
2023-04-15T20:27:44.076Z,17.15
2023-04-15T20:30:13.220Z,18.12
2023-04-15T20:32:40.611Z,17.55
2023-04-15T20:35:09.325Z,22.65
2023-04-15T20:37:38.100Z,29.93
2023-04-15T20:40:07.843Z,25.62
2023-04-15T20:42:35.941Z,26.80
2023-04-15T20:45:03.807Z,28.30
2023-04-15T20:47:31.064Z,25.55
2023-04-15T20:49:58.652Z,28.00
2023-04-15T20:52:26.434Z,31.17
2023-04-15T20:54:53.500Z,30.48
2023-04-15T20:57:21.297Z,28.67
2023-04-15T20:59:48.782Z,25.95
2023-04-15T21:02:16.896Z,24.30
2023-04-15T21:04:44.145Z,21.67
2023-04-15T21:07:11.058Z,21.55
2023-04-15T21:09:41.306Z,18.95
2023-04-15T21:12:09.285Z,17.65
2023-04-15T21:14:37.103Z,19.33
2023-04-15T21:17:09.362Z,18.80
2023-04-15T21:19:38.349Z,21.75
2023-04-15T21:22:05.737Z,22.17
2023-04-15T21:24:32.697Z,24.23
2023-04-15T21:26:59.736Z,23.67
2023-04-15T21:29:27.031Z,23.95
2023-04-15T21:31:54.184Z,24.67
2023-04-15T21:34:21.653Z,22.58
2023-04-15T21:36:48.719Z,23.95
2023-04-15T21:39:15.923Z,23.77
2023-04-15T21:41:42.851Z,21.65
2023-04-15T21:44:10.796Z,20.37
2023-04-15T21:46:39.023Z,22.17
2023-04-15T21:49:07.089Z,20.65
2023-04-15T21:51:34.837Z,19.43
2023-04-15T21:54:01.821Z,19.27
2023-04-15T21:56:28.796Z,25.67
2023-04-15T21:58:57.233Z,34.25
2023-04-15T22:01:25.194Z,32.35
2023-04-15T22:03:52.856Z,28.43
2023-04-15T22:06:20.269Z,25.65
2023-04-15T22:08:56.085Z,27.50
2023-04-15T22:11:34.082Z,24.73
2023-04-15T22:14:01.377Z,24.60
2023-04-15T22:16:28.794Z,23.20
2023-04-15T22:18:56.069Z,27.25
2023-04-15T22:21:23.834Z,24.27
2023-04-15T22:23:51.420Z,20.60
2023-04-15T22:26:18.489Z,18.60
2023-04-15T22:28:45.612Z,17.43
2023-04-15T22:31:13.793Z,17.12
2023-04-15T22:33:41.358Z,15.57
2023-04-15T22:36:08.273Z,14.60
2023-04-15T22:38:35.772Z,14.80
2023-04-15T22:41:02.995Z,12.47
2023-04-15T22:43:29.994Z,12.25
2023-04-15T22:45:57.377Z,13.00
2023-04-15T22:48:24.650Z,13.32
2023-04-15T22:50:52.079Z,12.60
2023-04-15T22:53:20.320Z,11.77
2023-04-15T22:55:48.729Z,12.35
2023-04-15T22:58:17.200Z,12.68
2023-04-15T23:00:44.870Z,11.35
2023-04-15T23:03:12.709Z,10.93
2023-04-15T23:05:42.704Z,10.57
2023-04-15T23:08:09.833Z,10.00
2023-04-15T23:10:40.081Z,10.85
2023-04-15T23:13:07.115Z,9.65
2023-04-15T23:15:34.424Z,10.80
2023-04-15T23:18:02.563Z,9.30
2023-04-15T23:20:29.576Z,9.02
2023-04-15T23:22:56.522Z,9.00
2023-04-15T23:25:24.098Z,8.88
2023-04-15T23:27:51.229Z,9.43
2023-04-15T23:30:18.297Z,8.00
2023-04-15T23:32:45.667Z,8.07
2023-04-15T23:35:12.684Z,8.45
2023-04-15T23:37:39.862Z,7.72
2023-04-15T23:40:07.650Z,8.13
2023-04-15T23:42:34.709Z,8.30
2023-04-15T23:45:02.060Z,7.60
2023-04-15T23:47:29.144Z,7.70
2023-04-15T23:49:56.524Z,7.72
2023-04-15T23:52:24.087Z,7.15
2023-04-15T23:54:51.050Z,7.50
2023-04-15T23:57:18.879Z,7.43
2023-04-15T23:59:46.312Z,7.50
